sensor_id;sensor_type;location;lat;lon;timestamp;pressure;altitude;pressure_sealevel;temperature;humidity
3082;BME280;1551;51.046;7.010;2023-06-22T00:58:58;101096.00;;;25.11;49.73
3082;BME280;1551;51.046;7.010;2023-06-22T01:01:48;101090.75;;;25.11;49.93
3082;BME280;1551;51.046;7.010;2023-06-22T01:04:38;101095.91;;;25.13;49.84
3082;BME280;1551;51.046;7.010;2023-06-22T01:07:35;101095.06;;;25.12;49.63
3082;BME280;1551;51.046;7.010;2023-06-22T01:10:43;101093.59;;;25.08;49.81
3082;BME280;1551;51.046;7.010;2023-06-22T01:13:45;101080.03;;;25.02;49.44
3082;BME280;1551;51.046;7.010;2023-06-22T01:16:40;101093.59;;;25.08;49.43
3082;BME280;1551;51.046;7.010;2023-06-22T01:22:32;101087.50;;;25.08;49.35
3082;BME280;1551;51.046;7.010;2023-06-22T01:25:56;101086.03;;;25.04;49.62
3082;BME280;1551;51.046;7.010;2023-06-22T01:28:50;101079.28;;;25.00;50.73
3082;BME280;1551;51.046;7.010;2023-06-22T01:31:42;101078.66;;;24.96;51.14
3082;BME280;1551;51.046;7.010;2023-06-22T01:34:34;101068.25;;;24.95;52.45
3082;BME280;1551;51.046;7.010;2023-06-22T01:37:27;101053.34;;;24.83;53.50
3082;BME280;1551;51.046;7.010;2023-06-22T01:40:18;101060.06;;;24.87;54.17
3082;BME280;1551;51.046;7.010;2023-06-22T01:43:08;101057.53;;;24.85;54.92
3082;BME280;1551;51.046;7.010;2023-06-22T01:46:01;101054.16;;;24.83;55.75
3082;BME280;1551;51.046;7.010;2023-06-22T01:48:51;101055.84;;;24.84;55.78
3082;BME280;1551;51.046;7.010;2023-06-22T01:51:40;101056.88;;;24.82;55.84
3082;BME280;1551;51.046;7.010;2023-06-22T01:54:29;101053.78;;;24.75;55.54
3082;BME280;1551;51.046;7.010;2023-06-22T01:57:18;101039.19;;;24.71;56.23
3082;BME280;1551;51.046;7.010;2023-06-22T02:00:12;101048.56;;;24.75;55.88
3082;BME280;1551;51.046;7.010;2023-06-22T02:03:22;101047.88;;;24.72;55.56
3082;BME280;1551;51.046;7.010;2023-06-22T02:06:23;101035.19;;;24.66;55.00
3082;BME280;1551;51.046;7.010;2023-06-22T02:09:16;101039.78;;;24.62;55.17
3082;BME280;1551;51.046;7.010;2023-06-22T02:12:06;101033.63;;;24.63;54.98
3082;BME280;1551;51.046;7.010;2023-06-22T02:14:57;101038.00;;;24.63;55.11
3082;BME280;1551;51.046;7.010;2023-06-22T02:17:47;101046.69;;;24.63;55.56
3082;BME280;1551;51.046;7.010;2023-06-22T02:20:38;101039.31;;;24.55;55.56
3082;BME280;1551;51.046;7.010;2023-06-22T02:23:26;101046.06;;;24.45;55.39
3082;BME280;1551;51.046;7.010;2023-06-22T02:26:17;101045.13;;;24.46;55.34
3082;BME280;1551;51.046;7.010;2023-06-22T02:29:06;101026.94;;;24.31;55.29
3082;BME280;1551;51.046;7.010;2023-06-22T02:31:55;101035.53;;;24.33;55.78
3082;BME280;1551;51.046;7.010;2023-06-22T02:34:44;101041.22;;;24.39;55.76
3082;BME280;1551;51.046;7.010;2023-06-22T02:37:37;101039.25;;;24.43;55.36
3082;BME280;1551;51.046;7.010;2023-06-22T02:40:30;101025.91;;;24.33;55.97
3082;BME280;1551;51.046;7.010;2023-06-22T02:43:20;101031.94;;;24.34;56.64
3082;BME280;1551;51.046;7.010;2023-06-22T02:46:08;101038.88;;;24.35;57.49
3082;BME280;1551;51.046;7.010;2023-06-22T02:48:57;101027.09;;;24.28;58.04
3082;BME280;1551;51.046;7.010;2023-06-22T02:51:47;101025.13;;;24.31;57.88
3082;BME280;1551;51.046;7.010;2023-06-22T02:54:39;101024.59;;;24.26;58.23
3082;BME280;1551;51.046;7.010;2023-06-22T02:57:28;101009.38;;;24.19;57.84
3082;BME280;1551;51.046;7.010;2023-06-22T03:00:17;101007.56;;;24.05;57.64
3082;BME280;1551;51.046;7.010;2023-06-22T03:03:08;101005.44;;;24.12;56.65
3082;BME280;1551;51.046;7.010;2023-06-22T03:05:57;101005.72;;;24.21;56.29
3082;BME280;1551;51.046;7.010;2023-06-22T03:08:47;100995.25;;;24.21;56.11
3082;BME280;1551;51.046;7.010;2023-06-22T03:11:36;101004.78;;;24.22;55.88
3082;BME280;1551;51.046;7.010;2023-06-22T03:14:26;100991.22;;;24.16;55.65
3082;BME280;1551;51.046;7.010;2023-06-22T03:17:15;100990.50;;;24.14;55.44
3082;BME280;1551;51.046;7.010;2023-06-22T03:20:05;100991.38;;;24.41;55.78
3082;BME280;1551;51.046;7.010;2023-06-22T03:22:59;100987.09;;;24.40;54.33
3082;BME280;1551;51.046;7.010;2023-06-22T03:25:48;101003.44;;;24.29;54.07
3082;BME280;1551;51.046;7.010;2023-06-22T03:28:37;100997.66;;;24.24;54.43
3082;BME280;1551;51.046;7.010;2023-06-22T03:31:26;100994.97;;;24.26;54.67
3082;BME280;1551;51.046;7.010;2023-06-22T03:34:15;100986.28;;;24.25;54.39
3082;BME280;1551;51.046;7.010;2023-06-22T03:37:04;100987.19;;;24.24;54.33
3082;BME280;1551;51.046;7.010;2023-06-22T03:39:53;100993.38;;;24.23;53.96
3082;BME280;1551;51.046;7.010;2023-06-22T03:42:43;100985.44;;;24.25;53.32
3082;BME280;1551;51.046;7.010;2023-06-22T03:45:32;100990.59;;;24.26;52.91
3082;BME280;1551;51.046;7.010;2023-06-22T03:48:21;100989.00;;;24.24;52.72
3082;BME280;1551;51.046;7.010;2023-06-22T03:51:10;100993.66;;;24.19;52.85
3082;BME280;1551;51.046;7.010;2023-06-22T03:53:59;100983.34;;;24.02;53.46
3082;BME280;1551;51.046;7.010;2023-06-22T03:56:48;100983.25;;;24.03;53.44
3082;BME280;1551;51.046;7.010;2023-06-22T03:59:37;100984.69;;;24.09;53.37
3082;BME280;1551;51.046;7.010;2023-06-22T04:02:27;100991.91;;;24.19;53.14
3082;BME280;1551;51.046;7.010;2023-06-22T04:05:15;100984.78;;;24.21;53.57
3082;BME280;1551;51.046;7.010;2023-06-22T04:08:07;100976.66;;;24.26;54.24
3082;BME280;1551;51.046;7.010;2023-06-22T04:10:56;100971.44;;;24.26;54.60
3082;BME280;1551;51.046;7.010;2023-06-22T04:13:45;100972.44;;;24.23;54.44
3082;BME280;1551;51.046;7.010;2023-06-22T04:16:34;100975.63;;;24.28;54.22
3082;BME280;1551;51.046;7.010;2023-06-22T04:19:23;100973.09;;;24.27;54.67
3082;BME280;1551;51.046;7.010;2023-06-22T04:22:12;100980.75;;;24.30;54.44
3082;BME280;1551;51.046;7.010;2023-06-22T04:25:01;100980.38;;;24.36;54.05
3082;BME280;1551;51.046;7.010;2023-06-22T04:27:50;100981.03;;;24.39;53.72
3082;BME280;1551;51.046;7.010;2023-06-22T04:30:40;100980.28;;;24.37;53.96
3082;BME280;1551;51.046;7.010;2023-06-22T04:33:34;100977.47;;;24.40;53.87
3082;BME280;1551;51.046;7.010;2023-06-22T04:36:23;100985.03;;;24.45;53.72
3082;BME280;1551;51.046;7.010;2023-06-22T04:39:12;100981.47;;;24.46;54.25
3082;BME280;1551;51.046;7.010;2023-06-22T04:42:01;100984.00;;;24.47;54.08
3082;BME280;1551;51.046;7.010;2023-06-22T04:44:51;100982.75;;;24.53;53.89
3082;BME280;1551;51.046;7.010;2023-06-22T04:47:39;100992.88;;;24.59;54.47
3082;BME280;1551;51.046;7.010;2023-06-22T04:50:29;100978.19;;;24.56;54.83
3082;BME280;1551;51.046;7.010;2023-06-22T04:53:18;100972.66;;;24.61;54.83
3082;BME280;1551;51.046;7.010;2023-06-22T04:56:08;100975.34;;;24.59;55.50
3082;BME280;1551;51.046;7.010;2023-06-22T04:58:57;100980.28;;;24.64;56.03
3082;BME280;1551;51.046;7.010;2023-06-22T05:01:46;100987.16;;;24.52;56.65
3082;BME280;1551;51.046;7.010;2023-06-22T05:04:35;100995.56;;;24.57;56.44
3082;BME280;1551;51.046;7.010;2023-06-22T05:07:27;100998.56;;;24.51;56.24
3082;BME280;1551;51.046;7.010;2023-06-22T05:10:16;100980.81;;;24.56;56.70
3082;BME280;1551;51.046;7.010;2023-06-22T05:13:05;100976.75;;;24.65;56.25
3082;BME280;1551;51.046;7.010;2023-06-22T05:15:54;100983.28;;;24.72;55.86
3082;BME280;1551;51.046;7.010;2023-06-22T05:18:54;100977.00;;;24.75;56.37
3082;BME280;1551;51.046;7.010;2023-06-22T05:21:43;100978.63;;;24.77;56.36
3082;BME280;1551;51.046;7.010;2023-06-22T05:24:32;100974.31;;;24.76;57.28
3082;BME280;1551;51.046;7.010;2023-06-22T05:27:21;100974.13;;;24.79;57.92
3082;BME280;1551;51.046;7.010;2023-06-22T05:30:10;100980.28;;;24.78;57.98
3082;BME280;1551;51.046;7.010;2023-06-22T05:33:00;100978.44;;;24.66;58.26
3082;BME280;1551;51.046;7.010;2023-06-22T05:35:49;100980.28;;;24.64;58.33
3082;BME280;1551;51.046;7.010;2023-06-22T05:38:38;100988.16;;;24.64;58.77
3082;BME280;1551;51.046;7.010;2023-06-22T05:41:28;100986.47;;;24.77;58.48
3082;BME280;1551;51.046;7.010;2023-06-22T05:44:18;100986.81;;;24.85;58.53
3082;BME280;1551;51.046;7.010;2023-06-22T05:47:07;100978.38;;;24.94;58.65
3082;BME280;1551;51.046;7.010;2023-06-22T05:49:56;100984.34;;;24.96;58.18
3082;BME280;1551;51.046;7.010;2023-06-22T05:52:45;100979.75;;;25.00;58.50
3082;BME280;1551;51.046;7.010;2023-06-22T05:55:34;100985.16;;;25.11;58.77
3082;BME280;1551;51.046;7.010;2023-06-22T05:58:23;100979.50;;;25.17;58.05
3082;BME280;1551;51.046;7.010;2023-06-22T06:01:12;100978.75;;;25.27;58.47
3082;BME280;1551;51.046;7.010;2023-06-22T06:04:04;100984.88;;;25.41;58.41
3082;BME280;1551;51.046;7.010;2023-06-22T06:06:53;100998.56;;;25.58;58.52
3082;BME280;1551;51.046;7.010;2023-06-22T06:09:42;101004.25;;;25.65;57.87
3082;BME280;1551;51.046;7.010;2023-06-22T06:12:31;101006.53;;;25.57;57.82
3082;BME280;1551;51.046;7.010;2023-06-22T06:15:21;101003.28;;;25.66;57.96
3082;BME280;1551;51.046;7.010;2023-06-22T06:18:10;100998.69;;;25.69;57.99
3082;BME280;1551;51.046;7.010;2023-06-22T06:20:59;100996.28;;;25.91;58.07
3082;BME280;1551;51.046;7.010;2023-06-22T06:23:48;101001.53;;;26.04;57.59
3082;BME280;1551;51.046;7.010;2023-06-22T06:26:37;101007.22;;;26.11;57.60
3082;BME280;1551;51.046;7.010;2023-06-22T06:29:26;100997.63;;;26.22;57.72
3082;BME280;1551;51.046;7.010;2023-06-22T06:32:15;101003.34;;;26.52;57.03
3082;BME280;1551;51.046;7.010;2023-06-22T06:35:06;101008.78;;;26.62;56.49
3082;BME280;1551;51.046;7.010;2023-06-22T06:37:55;101012.22;;;26.99;55.74
3082;BME280;1551;51.046;7.010;2023-06-22T06:40:44;101006.13;;;27.22;55.41
3082;BME280;1551;51.046;7.010;2023-06-22T06:43:34;101013.75;;;27.38;54.72
3082;BME280;1551;51.046;7.010;2023-06-22T06:46:23;101012.13;;;27.48;54.53
3082;BME280;1551;51.046;7.010;2023-06-22T06:49:12;101016.78;;;27.32;55.13
3082;BME280;1551;51.046;7.010;2023-06-22T06:52:02;101004.91;;;27.15;55.37
3082;BME280;1551;51.046;7.010;2023-06-22T06:54:51;100996.13;;;27.03;55.65
3082;BME280;1551;51.046;7.010;2023-06-22T06:57:41;101006.81;;;27.13;56.08
3082;BME280;1551;51.046;7.010;2023-06-22T07:00:30;101006.41;;;27.30;55.73
3082;BME280;1551;51.046;7.010;2023-06-22T07:03:19;100999.69;;;27.61;54.76
3082;BME280;1551;51.046;7.010;2023-06-22T07:06:08;100997.47;;;27.89;53.76
3082;BME280;1551;51.046;7.010;2023-06-22T07:08:57;100992.00;;;28.15;53.28
3082;BME280;1551;51.046;7.010;2023-06-22T07:11:46;100991.78;;;28.18;53.07
3082;BME280;1551;51.046;7.010;2023-06-22T07:14:35;100989.13;;;28.29;52.53
3082;BME280;1551;51.046;7.010;2023-06-22T07:17:24;100977.72;;;28.39;52.96
3082;BME280;1551;51.046;7.010;2023-06-22T07:20:13;100970.91;;;28.48;52.61
3082;BME280;1551;51.046;7.010;2023-06-22T07:23:02;100965.41;;;28.40;52.29
3082;BME280;1551;51.046;7.010;2023-06-22T07:25:52;100959.69;;;28.24;53.21
3082;BME280;1551;51.046;7.010;2023-06-22T07:28:41;100954.91;;;28.29;52.93
3082;BME280;1551;51.046;7.010;2023-06-22T07:31:30;100951.97;;;28.54;52.33
3082;BME280;1551;51.046;7.010;2023-06-22T07:34:19;100953.47;;;29.10;51.91
3082;BME280;1551;51.046;7.010;2023-06-22T07:37:08;100958.84;;;29.71;50.38
3082;BME280;1551;51.046;7.010;2023-06-22T07:39:57;100962.75;;;29.67;49.54
3082;BME280;1551;51.046;7.010;2023-06-22T07:42:47;100954.41;;;29.41;49.11
3082;BME280;1551;51.046;7.010;2023-06-22T07:45:38;100946.41;;;29.32;49.91
3082;BME280;1551;51.046;7.010;2023-06-22T07:48:29;100943.88;;;29.09;49.97
3082;BME280;1551;51.046;7.010;2023-06-22T07:51:17;100940.38;;;29.71;49.61
3082;BME280;1551;51.046;7.010;2023-06-22T07:54:06;100928.03;;;30.02;48.14
3082;BME280;1551;51.046;7.010;2023-06-22T07:56:56;100919.41;;;29.69;48.51
3082;BME280;1551;51.046;7.010;2023-06-22T07:59:45;100917.31;;;29.43;49.36
3082;BME280;1551;51.046;7.010;2023-06-22T08:02:34;100924.91;;;29.57;49.11
3082;BME280;1551;51.046;7.010;2023-06-22T08:05:22;100918.72;;;29.98;48.69
3082;BME280;1551;51.046;7.010;2023-06-22T08:08:12;100907.84;;;30.31;47.40
3082;BME280;1551;51.046;7.010;2023-06-22T08:11:03;100912.19;;;30.60;46.58
3082;BME280;1551;51.046;7.010;2023-06-22T08:13:52;100917.06;;;30.84;46.04
3082;BME280;1551;51.046;7.010;2023-06-22T08:16:41;100915.38;;;31.31;45.24
3082;BME280;1551;51.046;7.010;2023-06-22T08:19:31;100895.31;;;31.48;44.35
3082;BME280;1551;51.046;7.010;2023-06-22T08:22:20;100898.38;;;31.80;43.91
3082;BME280;1551;51.046;7.010;2023-06-22T08:25:09;100891.19;;;32.00;42.97
3082;BME280;1551;51.046;7.010;2023-06-22T08:27:58;100893.16;;;31.98;42.81
3082;BME280;1551;51.046;7.010;2023-06-22T08:30:47;100875.09;;;32.11;42.03
3082;BME280;1551;51.046;7.010;2023-06-22T08:33:36;100868.94;;;32.10;40.94
3082;BME280;1551;51.046;7.010;2023-06-22T08:36:25;100876.16;;;32.18;41.14
3082;BME280;1551;51.046;7.010;2023-06-22T08:39:21;100873.75;;;32.42;41.13
3082;BME280;1551;51.046;7.010;2023-06-22T08:42:10;100867.91;;;32.91;40.44
3082;BME280;1551;51.046;7.010;2023-06-22T08:45:00;100869.78;;;33.16;40.18
3082;BME280;1551;51.046;7.010;2023-06-22T08:47:49;100868.16;;;33.23;40.36
3082;BME280;1551;51.046;7.010;2023-06-22T08:50:38;100858.34;;;33.50;40.98
3082;BME280;1551;51.046;7.010;2023-06-22T08:53:29;100862.69;;;33.92;40.46
3082;BME280;1551;51.046;7.010;2023-06-22T08:56:18;100857.31;;;34.18;39.45
3082;BME280;1551;51.046;7.010;2023-06-22T08:59:07;100851.00;;;34.27;39.81
3082;BME280;1551;51.046;7.010;2023-06-22T09:01:56;100845.19;;;34.16;40.01
3082;BME280;1551;51.046;7.010;2023-06-22T09:04:46;100835.56;;;34.39;39.35
3082;BME280;1551;51.046;7.010;2023-06-22T09:07:35;100830.72;;;34.10;39.97
3082;BME280;1551;51.046;7.010;2023-06-22T09:10:24;100822.59;;;33.70;40.30
3082;BME280;1551;51.046;7.010;2023-06-22T09:13:13;100819.63;;;33.81;40.52
3082;BME280;1551;51.046;7.010;2023-06-22T09:16:02;100820.81;;;33.78;40.17
3082;BME280;1551;51.046;7.010;2023-06-22T09:18:52;100821.44;;;33.64;40.75
3082;BME280;1551;51.046;7.010;2023-06-22T09:21:41;100814.19;;;33.49;40.73
3082;BME280;1551;51.046;7.010;2023-06-22T09:24:29;100816.41;;;33.53;40.67
3082;BME280;1551;51.046;7.010;2023-06-22T09:27:18;100813.31;;;33.66;40.02
3082;BME280;1551;51.046;7.010;2023-06-22T09:30:08;100810.59;;;33.58;40.00
3082;BME280;1551;51.046;7.010;2023-06-22T09:32:57;100801.03;;;33.73;39.28
3082;BME280;1551;51.046;7.010;2023-06-22T09:35:46;100796.75;;;33.88;39.05
3082;BME280;1551;51.046;7.010;2023-06-22T09:38:38;100789.78;;;33.87;39.13
3082;BME280;1551;51.046;7.010;2023-06-22T09:41:27;100790.47;;;33.47;39.82
3082;BME280;1551;51.046;7.010;2023-06-22T09:44:16;100788.28;;;33.43;39.74
3082;BME280;1551;51.046;7.010;2023-06-22T09:47:06;100780.81;;;33.46;39.88
3082;BME280;1551;51.046;7.010;2023-06-22T09:49:55;100771.25;;;33.53;39.69
3082;BME280;1551;51.046;7.010;2023-06-22T09:52:44;100772.84;;;33.38;40.12
3082;BME280;1551;51.046;7.010;2023-06-22T09:55:35;100784.97;;;33.82;38.99
3082;BME280;1551;51.046;7.010;2023-06-22T09:58:24;100787.31;;;34.02;38.48
3082;BME280;1551;51.046;7.010;2023-06-22T10:01:13;100780.00;;;33.96;38.88
3082;BME280;1551;51.046;7.010;2023-06-22T10:04:04;100781.50;;;33.48;39.64
3082;BME280;1551;51.046;7.010;2023-06-22T10:06:54;100773.59;;;32.97;40.65
3082;BME280;1551;51.046;7.010;2023-06-22T10:09:45;100774.63;;;32.70;40.46
3082;BME280;1551;51.046;7.010;2023-06-22T10:12:34;100771.25;;;32.25;41.72
3082;BME280;1551;51.046;7.010;2023-06-22T10:15:23;100777.00;;;32.03;42.51
3082;BME280;1551;51.046;7.010;2023-06-22T10:18:12;100778.81;;;31.75;42.99
3082;BME280;1551;51.046;7.010;2023-06-22T10:21:02;100794.25;;;31.25;43.99
3082;BME280;1551;51.046;7.010;2023-06-22T10:23:51;100806.97;;;31.02;44.23
3082;BME280;1551;51.046;7.010;2023-06-22T10:26:40;100828.03;;;30.94;45.00
3082;BME280;1551;51.046;7.010;2023-06-22T10:29:29;100836.66;;;30.58;47.88
3082;BME280;1551;51.046;7.010;2023-06-22T10:32:17;100847.66;;;30.34;49.57
3082;BME280;1551;51.046;7.010;2023-06-22T10:35:07;100838.16;;;30.03;50.90
3082;BME280;1551;51.046;7.010;2023-06-22T10:37:56;100849.88;;;29.80;52.20
3082;BME280;1551;51.046;7.010;2023-06-22T10:40:45;100834.94;;;29.60;52.45
3082;BME280;1551;51.046;7.010;2023-06-22T10:43:34;100850.22;;;29.56;56.59
3082;BME280;1551;51.046;7.010;2023-06-22T10:46:26;100851.53;;;29.41;59.41
3082;BME280;1551;51.046;7.010;2023-06-22T10:49:16;100861.47;;;29.17;62.07
3082;BME280;1551;51.046;7.010;2023-06-22T10:52:07;100872.56;;;28.90;64.63
3082;BME280;1551;51.046;7.010;2023-06-22T10:54:57;100888.31;;;28.38;63.56
3082;BME280;1551;51.046;7.010;2023-06-22T10:57:46;100904.75;;;27.86;65.10
3082;BME280;1551;51.046;7.010;2023-06-22T11:00:36;100893.28;;;27.87;70.00
3082;BME280;1551;51.046;7.010;2023-06-22T11:03:24;100886.84;;;27.80;72.45
3082;BME280;1551;51.046;7.010;2023-06-22T11:06:13;100895.69;;;27.57;74.38
3082;BME280;1551;51.046;7.010;2023-06-22T11:09:03;100903.69;;;27.44;75.36
3082;BME280;1551;51.046;7.010;2023-06-22T11:11:53;100907.91;;;27.23;75.64
3082;BME280;1551;51.046;7.010;2023-06-22T11:14:42;100917.44;;;27.13;76.78
3082;BME280;1551;51.046;7.010;2023-06-22T11:17:31;100910.38;;;27.02;76.70
3082;BME280;1551;51.046;7.010;2023-06-22T11:20:20;100910.34;;;26.91;78.28
3082;BME280;1551;51.046;7.010;2023-06-22T11:23:09;100892.50;;;26.84;78.11
3082;BME280;1551;51.046;7.010;2023-06-22T11:25:58;100846.34;;;26.69;78.14
3082;BME280;1551;51.046;7.010;2023-06-22T11:28:47;100803.91;;;26.75;78.79
3082;BME280;1551;51.046;7.010;2023-06-22T11:31:36;100809.47;;;26.70;79.46
3082;BME280;1551;51.046;7.010;2023-06-22T11:34:25;100814.16;;;26.54;81.00
3082;BME280;1551;51.046;7.010;2023-06-22T11:37:15;100827.44;;;26.63;81.27
3082;BME280;1551;51.046;7.010;2023-06-22T11:40:04;100811.09;;;26.84;80.58
3082;BME280;1551;51.046;7.010;2023-06-22T11:42:55;100769.31;;;27.14;79.29
3082;BME280;1551;51.046;7.010;2023-06-22T11:45:44;100787.59;;;27.15;77.34
3082;BME280;1551;51.046;7.010;2023-06-22T11:48:33;100781.00;;;26.99;77.21
3082;BME280;1551;51.046;7.010;2023-06-22T11:51:22;100761.91;;;27.08;77.93
3082;BME280;1551;51.046;7.010;2023-06-22T11:54:11;100727.00;;;26.95;77.20
3082;BME280;1551;51.046;7.010;2023-06-22T11:57:00;100680.94;;;26.80;76.71
3082;BME280;1551;51.046;7.010;2023-06-22T11:59:49;100681.09;;;26.54;77.27
3082;BME280;1551;51.046;7.010;2023-06-22T12:02:38;100705.56;;;26.55;79.27
3082;BME280;1551;51.046;7.010;2023-06-22T12:05:26;100713.81;;;26.61;79.87
3082;BME280;1551;51.046;7.010;2023-06-22T12:08:15;100734.59;;;26.65;80.10
3082;BME280;1551;51.046;7.010;2023-06-22T12:11:04;100734.09;;;27.05;78.82
3082;BME280;1551;51.046;7.010;2023-06-22T12:13:53;100716.94;;;27.66;76.20
3082;BME280;1551;51.046;7.010;2023-06-22T12:16:42;100704.34;;;28.54;72.51
3082;BME280;1551;51.046;7.010;2023-06-22T12:19:32;100696.94;;;28.59;70.80
3082;BME280;1551;51.046;7.010;2023-06-22T12:22:21;100704.22;;;28.35;70.53
3082;BME280;1551;51.046;7.010;2023-06-22T12:25:10;100704.22;;;28.14;71.19
3082;BME280;1551;51.046;7.010;2023-06-22T12:27:59;100695.25;;;27.85;72.39
3082;BME280;1551;51.046;7.010;2023-06-22T12:30:48;100693.00;;;27.80;72.67
3082;BME280;1551;51.046;7.010;2023-06-22T12:33:38;100683.53;;;27.78;73.24
3082;BME280;1551;51.046;7.010;2023-06-22T12:36:26;100687.84;;;27.79;73.16
3082;BME280;1551;51.046;7.010;2023-06-22T12:39:15;100696.47;;;28.13;73.24
3082;BME280;1551;51.046;7.010;2023-06-22T12:42:04;100684.34;;;28.63;70.22
3082;BME280;1551;51.046;7.010;2023-06-22T12:44:55;100667.47;;;29.14;68.99
3082;BME280;1551;51.046;7.010;2023-06-22T12:47:44;100672.63;;;29.75;67.73
3082;BME280;1551;51.046;7.010;2023-06-22T12:50:34;100668.50;;;30.67;66.24
3082;BME280;1551;51.046;7.010;2023-06-22T12:53:23;100662.03;;;30.88;63.17
3082;BME280;1551;51.046;7.010;2023-06-22T12:56:12;100648.19;;;30.57;62.34
3082;BME280;1551;51.046;7.010;2023-06-22T12:59:01;100639.25;;;30.78;61.05
3082;BME280;1551;51.046;7.010;2023-06-22T13:01:50;100631.31;;;30.78;60.90
3082;BME280;1551;51.046;7.010;2023-06-22T13:04:39;100626.19;;;31.03;59.96
3082;BME280;1551;51.046;7.010;2023-06-22T13:07:28;100632.69;;;31.09;58.85
3082;BME280;1551;51.046;7.010;2023-06-22T13:10:17;100632.16;;;31.05;59.53
3082;BME280;1551;51.046;7.010;2023-06-22T13:13:06;100636.31;;;31.70;59.10
3082;BME280;1551;51.046;7.010;2023-06-22T13:15:55;100628.19;;;31.46;55.87
3082;BME280;1551;51.046;7.010;2023-06-22T13:18:43;100615.84;;;31.10;56.94
3082;BME280;1551;51.046;7.010;2023-06-22T13:21:33;100617.81;;;31.08;56.75
3082;BME280;1551;51.046;7.010;2023-06-22T13:24:22;100615.38;;;30.97;57.03
3082;BME280;1551;51.046;7.010;2023-06-22T13:27:11;100609.25;;;31.41;55.58
3082;BME280;1551;51.046;7.010;2023-06-22T13:30:00;100594.72;;;31.27;54.53
3082;BME280;1551;51.046;7.010;2023-06-22T13:32:51;100591.38;;;30.81;55.62
3082;BME280;1551;51.046;7.010;2023-06-22T13:35:40;100584.00;;;30.75;56.11
3082;BME280;1551;51.046;7.010;2023-06-22T13:38:31;100580.56;;;31.01;54.58
3082;BME280;1551;51.046;7.010;2023-06-22T13:41:21;100562.34;;;31.34;54.75
3082;BME280;1551;51.046;7.010;2023-06-22T13:44:10;100565.81;;;31.44;54.25
3082;BME280;1551;51.046;7.010;2023-06-22T13:46:59;100553.00;;;31.57;54.55
3082;BME280;1551;51.046;7.010;2023-06-22T13:49:48;100542.16;;;32.11;53.71
3082;BME280;1551;51.046;7.010;2023-06-22T13:52:37;100542.16;;;32.11;53.85
3082;BME280;1551;51.046;7.010;2023-06-22T13:55:26;100537.03;;;31.92;53.38
3082;BME280;1551;51.046;7.010;2023-06-22T13:58:15;100517.00;;;31.64;53.78
3082;BME280;1551;51.046;7.010;2023-06-22T14:01:04;100505.59;;;31.28;55.01
3082;BME280;1551;51.046;7.010;2023-06-22T14:03:53;100503.47;;;31.32;55.57
3082;BME280;1551;51.046;7.010;2023-06-22T14:06:42;100484.00;;;31.84;53.97
3082;BME280;1551;51.046;7.010;2023-06-22T14:09:31;100471.22;;;31.71;53.11
3082;BME280;1551;51.046;7.010;2023-06-22T14:12:20;100466.44;;;31.49;52.56
3082;BME280;1551;51.046;7.010;2023-06-22T14:15:09;100466.66;;;31.38;53.05
3082;BME280;1551;51.046;7.010;2023-06-22T14:17:57;100472.94;;;31.55;53.08
3082;BME280;1551;51.046;7.010;2023-06-22T14:20:46;100467.38;;;31.22;52.88
3082;BME280;1551;51.046;7.010;2023-06-22T14:23:36;100467.34;;;30.87;53.27
3082;BME280;1551;51.046;7.010;2023-06-22T14:26:26;100465.25;;;30.46;53.92
3082;BME280;1551;51.046;7.010;2023-06-22T14:29:15;100450.78;;;29.86;54.19
3082;BME280;1551;51.046;7.010;2023-06-22T14:32:05;100442.50;;;29.52;55.52
3082;BME280;1551;51.046;7.010;2023-06-22T14:34:55;100415.34;;;29.42;55.67
3082;BME280;1551;51.046;7.010;2023-06-22T14:37:43;100402.94;;;29.52;55.85
3082;BME280;1551;51.046;7.010;2023-06-22T14:40:32;100410.63;;;29.26;56.20
3082;BME280;1551;51.046;7.010;2023-06-22T14:43:21;100402.44;;;29.10;56.60
3082;BME280;1551;51.046;7.010;2023-06-22T14:46:10;100405.81;;;28.84;57.69
3082;BME280;1551;51.046;7.010;2023-06-22T14:48:59;100399.00;;;28.72;58.86
3082;BME280;1551;51.046;7.010;2023-06-22T14:51:48;100387.47;;;28.63;59.79
3082;BME280;1551;51.046;7.010;2023-06-22T14:54:37;100397.16;;;28.53;61.06
3082;BME280;1551;51.046;7.010;2023-06-22T14:57:26;100403.13;;;28.45;61.59
3082;BME280;1551;51.046;7.010;2023-06-22T15:00:15;100385.19;;;28.20;63.03
3082;BME280;1551;51.046;7.010;2023-06-22T15:03:05;100373.81;;;28.10;63.58
3082;BME280;1551;51.046;7.010;2023-06-22T15:05:55;100378.28;;;27.89;64.90
3082;BME280;1551;51.046;7.010;2023-06-22T15:08:45;100422.50;;;27.74;66.44
3082;BME280;1551;51.046;7.010;2023-06-22T15:11:34;100430.25;;;27.66;68.43
3082;BME280;1551;51.046;7.010;2023-06-22T15:14:23;100411.56;;;27.28;70.74
3082;BME280;1551;51.046;7.010;2023-06-22T15:17:13;100393.09;;;26.77;72.93
3082;BME280;1551;51.046;7.010;2023-06-22T15:20:04;100403.19;;;26.39;74.84
3082;BME280;1551;51.046;7.010;2023-06-22T15:22:54;100407.91;;;26.13;76.93
3082;BME280;1551;51.046;7.010;2023-06-22T15:25:43;100403.00;;;25.98;78.46
3082;BME280;1551;51.046;7.010;2023-06-22T15:28:33;100405.38;;;25.78;79.39
3082;BME280;1551;51.046;7.010;2023-06-22T15:31:23;100377.00;;;25.61;79.96
3082;BME280;1551;51.046;7.010;2023-06-22T15:34:13;100358.31;;;25.44;80.52
3082;BME280;1551;51.046;7.010;2023-06-22T15:37:02;100361.31;;;25.15;82.18
3082;BME280;1551;51.046;7.010;2023-06-22T15:39:51;100366.75;;;25.01;83.27
3082;BME280;1551;51.046;7.010;2023-06-22T15:42:41;100353.03;;;24.98;83.83
3082;BME280;1551;51.046;7.010;2023-06-22T15:45:29;100346.16;;;24.97;84.67
3082;BME280;1551;51.046;7.010;2023-06-22T15:48:18;100328.84;;;24.83;85.16
3082;BME280;1551;51.046;7.010;2023-06-22T15:51:07;100315.47;;;24.75;85.90
3082;BME280;1551;51.046;7.010;2023-06-22T15:53:56;100303.63;;;24.58;86.09
3082;BME280;1551;51.046;7.010;2023-06-22T15:56:46;100328.50;;;24.64;86.86
3082;BME280;1551;51.046;7.010;2023-06-22T15:59:35;100329.31;;;24.53;86.72
3082;BME280;1551;51.046;7.010;2023-06-22T16:02:24;100323.34;;;24.51;87.23
3082;BME280;1551;51.046;7.010;2023-06-22T16:05:15;100321.66;;;24.50;87.30
3082;BME280;1551;51.046;7.010;2023-06-22T16:08:09;100312.72;;;24.42;87.55
3082;BME280;1551;51.046;7.010;2023-06-22T16:11:00;100304.59;;;24.34;88.04